sensor_id;sensor_type;location;lat;lon;timestamp;pressure;altitude;pressure_sealevel;temperature;humidity
829;BME280;396;52.558;13.188;2023-04-07T00:02:04;101456.22;;;2.45;74.86
829;BME280;396;52.558;13.188;2023-04-07T00:04:30;101460.00;;;2.38;75.75
829;BME280;396;52.558;13.188;2023-04-07T00:06:57;101448.13;;;2.34;76.12
829;BME280;396;52.558;13.188;2023-04-07T00:09:25;101450.22;;;2.32;76.15
829;BME280;396;52.558;13.188;2023-04-07T00:11:51;101453.72;;;2.32;75.66
829;BME280;396;52.558;13.188;2023-04-07T00:14:18;101454.47;;;2.39;75.16
829;BME280;396;52.558;13.188;2023-04-07T00:16:45;101453.78;;;2.25;78.17
829;BME280;396;52.558;13.188;2023-04-07T00:19:11;101453.28;;;2.35;77.65
829;BME280;396;52.558;13.188;2023-04-07T00:21:38;101445.75;;;2.44;77.71
829;BME280;396;52.558;13.188;2023-04-07T00:24:05;101463.00;;;2.48;77.75
829;BME280;396;52.558;13.188;2023-04-07T00:26:33;101457.78;;;2.53;77.42
829;BME280;396;52.558;13.188;2023-04-07T00:29:00;101451.69;;;2.46;77.88
829;BME280;396;52.558;13.188;2023-04-07T00:31:26;101446.38;;;2.27;79.33
829;BME280;396;52.558;13.188;2023-04-07T00:33:53;101451.34;;;2.24;79.87
829;BME280;396;52.558;13.188;2023-04-07T00:36:20;101452.13;;;2.43;78.19
829;BME280;396;52.558;13.188;2023-04-07T00:38:46;101442.06;;;2.26;79.86
829;BME280;396;52.558;13.188;2023-04-07T00:41:13;101439.09;;;2.16;80.95
829;BME280;396;52.558;13.188;2023-04-07T00:43:41;101436.66;;;2.15;80.14
829;BME280;396;52.558;13.188;2023-04-07T00:46:08;101440.13;;;2.15;79.69
829;BME280;396;52.558;13.188;2023-04-07T00:48:35;101442.13;;;2.20;80.24
829;BME280;396;52.558;13.188;2023-04-07T00:51:02;101444.28;;;2.11;80.64
829;BME280;396;52.558;13.188;2023-04-07T00:53:29;101441.25;;;2.08;79.53
829;BME280;396;52.558;13.188;2023-04-07T00:55:56;101438.38;;;1.91;79.02
829;BME280;396;52.558;13.188;2023-04-07T00:58:22;101440.19;;;1.72;80.81
829;BME280;396;52.558;13.188;2023-04-07T01:00:54;101433.75;;;1.80;80.43
829;BME280;396;52.558;13.188;2023-04-07T01:03:27;101435.91;;;1.71;80.77
829;BME280;396;52.558;13.188;2023-04-07T01:05:59;101433.50;;;1.63;80.25
829;BME280;396;52.558;13.188;2023-04-07T01:08:32;101427.97;;;1.64;80.01
829;BME280;396;52.558;13.188;2023-04-07T01:11:05;101425.97;;;1.60;79.81
829;BME280;396;52.558;13.188;2023-04-07T01:13:35;101423.34;;;1.71;79.33
829;BME280;396;52.558;13.188;2023-04-07T01:16:12;101427.88;;;1.71;79.10
829;BME280;396;52.558;13.188;2023-04-07T01:18:43;101429.22;;;1.62;79.73
829;BME280;396;52.558;13.188;2023-04-07T01:21:14;101419.44;;;1.56;80.55
829;BME280;396;52.558;13.188;2023-04-07T01:23:51;101422.00;;;1.44;81.97
829;BME280;396;52.558;13.188;2023-04-07T01:26:27;101411.19;;;1.32;81.76
829;BME280;396;52.558;13.188;2023-04-07T01:29:16;101402.00;;;1.28;82.31
829;BME280;396;52.558;13.188;2023-04-07T01:31:44;101408.91;;;1.36;82.98
829;BME280;396;52.558;13.188;2023-04-07T01:34:12;101409.56;;;1.56;82.33
829;BME280;396;52.558;13.188;2023-04-07T01:36:40;101409.72;;;1.36;83.06
829;BME280;396;52.558;13.188;2023-04-07T01:39:08;101404.66;;;1.28;83.29
829;BME280;396;52.558;13.188;2023-04-07T01:41:36;101397.72;;;1.27;82.35
829;BME280;396;52.558;13.188;2023-04-07T01:44:03;101400.19;;;1.29;81.83
829;BME280;396;52.558;13.188;2023-04-07T01:46:33;101398.75;;;1.26;81.24
829;BME280;396;52.558;13.188;2023-04-07T01:49:00;101404.25;;;1.31;81.47
829;BME280;396;52.558;13.188;2023-04-07T01:51:29;101403.13;;;1.20;82.07
829;BME280;396;52.558;13.188;2023-04-07T01:53:58;101404.09;;;1.26;82.74
829;BME280;396;52.558;13.188;2023-04-07T01:56:24;101404.63;;;1.35;82.71
829;BME280;396;52.558;13.188;2023-04-07T01:58:51;101402.13;;;1.40;82.65
829;BME280;396;52.558;13.188;2023-04-07T02:01:17;101410.72;;;1.42;82.87
829;BME280;396;52.558;13.188;2023-04-07T02:03:50;101403.59;;;1.36;83.62
829;BME280;396;52.558;13.188;2023-04-07T02:06:20;101403.31;;;1.19;84.06
829;BME280;396;52.558;13.188;2023-04-07T02:08:49;101403.22;;;1.07;85.13
829;BME280;396;52.558;13.188;2023-04-07T02:11:19;101395.38;;;1.12;85.24
829;BME280;396;52.558;13.188;2023-04-07T02:13:46;101401.75;;;1.11;85.01
829;BME280;396;52.558;13.188;2023-04-07T02:16:15;101395.28;;;1.25;84.43
829;BME280;396;52.558;13.188;2023-04-07T02:18:42;101397.06;;;1.32;84.12
829;BME280;396;52.558;13.188;2023-04-07T02:21:13;101395.53;;;1.42;83.25
829;BME280;396;52.558;13.188;2023-04-07T02:23:40;101392.31;;;1.34;83.76
829;BME280;396;52.558;13.188;2023-04-07T02:26:07;101395.44;;;1.31;84.68
829;BME280;396;52.558;13.188;2023-04-07T02:28:33;101384.38;;;1.27;83.63
829;BME280;396;52.558;13.188;2023-04-07T02:31:00;101395.84;;;1.27;83.22
829;BME280;396;52.558;13.188;2023-04-07T02:33:27;101395.84;;;1.27;83.15
829;BME280;396;52.558;13.188;2023-04-07T02:35:53;101388.06;;;1.26;83.29
829;BME280;396;52.558;13.188;2023-04-07T02:38:21;101389.81;;;1.14;83.39
829;BME280;396;52.558;13.188;2023-04-07T02:40:48;101387.25;;;1.00;84.24
829;BME280;396;52.558;13.188;2023-04-07T02:43:14;101377.56;;;1.06;84.46
829;BME280;396;52.558;13.188;2023-04-07T02:45:43;101384.97;;;1.04;85.11
829;BME280;396;52.558;13.188;2023-04-07T02:48:09;101378.84;;;1.04;84.06
829;BME280;396;52.558;13.188;2023-04-07T02:50:36;101372.03;;;1.08;83.71
829;BME280;396;52.558;13.188;2023-04-07T02:53:03;101381.06;;;1.07;84.11
829;BME280;396;52.558;13.188;2023-04-07T02:55:31;101383.50;;;1.08;83.42
829;BME280;396;52.558;13.188;2023-04-07T02:57:57;101382.16;;;0.99;83.62
829;BME280;396;52.558;13.188;2023-04-07T03:00:24;101382.97;;;0.99;83.05
829;BME280;396;52.558;13.188;2023-04-07T03:02:50;101378.88;;;0.97;84.17
829;BME280;396;52.558;13.188;2023-04-07T03:05:17;101373.72;;;1.02;83.86
829;BME280;396;52.558;13.188;2023-04-07T03:07:44;101384.22;;;0.97;84.03
829;BME280;396;52.558;13.188;2023-04-07T03:10:10;101377.25;;;0.96;83.50
829;BME280;396;52.558;13.188;2023-04-07T03:12:38;101376.16;;;1.04;82.84
829;BME280;396;52.558;13.188;2023-04-07T03:15:06;101374.31;;;1.04;81.74
829;BME280;396;52.558;13.188;2023-04-07T03:17:33;101379.88;;;1.03;82.86
829;BME280;396;52.558;13.188;2023-04-07T03:20:00;101374.81;;;0.94;85.33
829;BME280;396;52.558;13.188;2023-04-07T03:22:27;101372.78;;;0.90;85.84
829;BME280;396;52.558;13.188;2023-04-07T03:24:53;101371.97;;;0.89;85.79
829;BME280;396;52.558;13.188;2023-04-07T03:27:20;101371.06;;;1.02;84.83
829;BME280;396;52.558;13.188;2023-04-07T03:29:48;101382.03;;;1.12;84.16
829;BME280;396;52.558;13.188;2023-04-07T03:32:15;101369.41;;;1.01;84.98
829;BME280;396;52.558;13.188;2023-04-07T03:34:42;101367.47;;;0.90;85.48
829;BME280;396;52.558;13.188;2023-04-07T03:37:08;101365.72;;;1.02;85.26
829;BME280;396;52.558;13.188;2023-04-07T03:39:35;101362.13;;;0.90;85.56
829;BME280;396;52.558;13.188;2023-04-07T03:42:02;101360.38;;;0.77;86.98
829;BME280;396;52.558;13.188;2023-04-07T03:44:29;101363.06;;;0.70;87.26
829;BME280;396;52.558;13.188;2023-04-07T03:46:57;101363.69;;;0.72;87.07
829;BME280;396;52.558;13.188;2023-04-07T03:49:23;101363.31;;;0.69;87.50
829;BME280;396;52.558;13.188;2023-04-07T03:51:51;101363.97;;;0.89;85.21
829;BME280;396;52.558;13.188;2023-04-07T03:54:17;101363.72;;;0.97;83.24
829;BME280;396;52.558;13.188;2023-04-07T03:56:44;101365.13;;;1.00;83.33
829;BME280;396;52.558;13.188;2023-04-07T03:59:11;101361.84;;;0.98;84.60
829;BME280;396;52.558;13.188;2023-04-07T04:01:38;101366.25;;;0.86;84.57
829;BME280;396;52.558;13.188;2023-04-07T04:04:06;101364.53;;;0.98;83.27
829;BME280;396;52.558;13.188;2023-04-07T04:06:32;101360.97;;;1.04;82.33
829;BME280;396;52.558;13.188;2023-04-07T04:08:59;101362.44;;;1.00;83.30
829;BME280;396;52.558;13.188;2023-04-07T04:11:25;101364.94;;;0.95;84.32
829;BME280;396;52.558;13.188;2023-04-07T04:13:52;101369.47;;;0.94;84.39
829;BME280;396;52.558;13.188;2023-04-07T04:16:19;101362.22;;;1.01;84.39
829;BME280;396;52.558;13.188;2023-04-07T04:18:45;101364.72;;;0.96;84.55
829;BME280;396;52.558;13.188;2023-04-07T04:21:13;101369.88;;;0.98;84.26
829;BME280;396;52.558;13.188;2023-04-07T04:23:40;101370.69;;;0.98;84.36
829;BME280;396;52.558;13.188;2023-04-07T04:26:07;101367.94;;;1.05;84.24
829;BME280;396;52.558;13.188;2023-04-07T04:28:33;101372.53;;;0.98;83.48
829;BME280;396;52.558;13.188;2023-04-07T04:31:00;101364.13;;;0.94;84.46
829;BME280;396;52.558;13.188;2023-04-07T04:33:26;101370.69;;;0.98;84.55
829;BME280;396;52.558;13.188;2023-04-07T04:35:53;101374.75;;;1.01;86.30
829;BME280;396;52.558;13.188;2023-04-07T04:38:21;101373.00;;;1.13;86.14
829;BME280;396;52.558;13.188;2023-04-07T04:40:48;101373.50;;;1.29;84.26
829;BME280;396;52.558;13.188;2023-04-07T04:43:14;101375.28;;;1.35;85.05
829;BME280;396;52.558;13.188;2023-04-07T04:45:41;101379.50;;;1.24;85.33
829;BME280;396;52.558;13.188;2023-04-07T04:48:07;101377.78;;;1.30;84.45
829;BME280;396;52.558;13.188;2023-04-07T04:50:35;101380.47;;;1.30;84.68
829;BME280;396;52.558;13.188;2023-04-07T04:53:01;101373.66;;;1.34;85.44
829;BME280;396;52.558;13.188;2023-04-07T04:55:29;101373.78;;;1.39;84.54
829;BME280;396;52.558;13.188;2023-04-07T04:57:56;101377.97;;;1.53;84.30
829;BME280;396;52.558;13.188;2023-04-07T05:00:22;101374.53;;;1.46;84.46
829;BME280;396;52.558;13.188;2023-04-07T05:02:49;101373.78;;;1.39;85.68
829;BME280;396;52.558;13.188;2023-04-07T05:05:16;101375.56;;;1.45;85.71
829;BME280;396;52.558;13.188;2023-04-07T05:07:42;101375.94;;;1.48;85.52
829;BME280;396;52.558;13.188;2023-04-07T05:10:09;101377.03;;;1.41;86.25
829;BME280;396;52.558;13.188;2023-04-07T05:12:37;101388.41;;;1.55;85.99
829;BME280;396;52.558;13.188;2023-04-07T05:15:05;101382.88;;;1.56;86.29
829;BME280;396;52.558;13.188;2023-04-07T05:17:32;101383.25;;;1.60;85.89
829;BME280;396;52.558;13.188;2023-04-07T05:19:58;101390.06;;;1.74;85.08
829;BME280;396;52.558;13.188;2023-04-07T05:22:25;101388.50;;;1.66;85.71
829;BME280;396;52.558;13.188;2023-04-07T05:24:52;101391.13;;;1.73;85.57
829;BME280;396;52.558;13.188;2023-04-07T05:27:18;101388.78;;;1.76;86.13
829;BME280;396;52.558;13.188;2023-04-07T05:29:46;101390.34;;;1.84;85.78
829;BME280;396;52.558;13.188;2023-04-07T05:32:13;101397.69;;;1.89;85.50
829;BME280;396;52.558;13.188;2023-04-07T05:34:39;101393.81;;;2.03;85.15
829;BME280;396;52.558;13.188;2023-04-07T05:37:06;101391.16;;;2.03;84.19
829;BME280;396;52.558;13.188;2023-04-07T05:39:33;101392.13;;;2.09;84.40
829;BME280;396;52.558;13.188;2023-04-07T05:41:59;101387.47;;;2.34;83.24
829;BME280;396;52.558;13.188;2023-04-07T05:44:27;101395.66;;;2.39;82.89
829;BME280;396;52.558;13.188;2023-04-07T05:46:55;101397.28;;;2.52;82.39
829;BME280;396;52.558;13.188;2023-04-07T05:49:21;101394.19;;;2.55;82.33
829;BME280;396;52.558;13.188;2023-04-07T05:51:48;101399.44;;;2.62;82.01
829;BME280;396;52.558;13.188;2023-04-07T05:54:14;101391.31;;;2.68;82.01
829;BME280;396;52.558;13.188;2023-04-07T05:56:41;101389.59;;;2.86;80.54
829;BME280;396;52.558;13.188;2023-04-07T05:59:07;101386.00;;;2.92;80.25
829;BME280;396;52.558;13.188;2023-04-07T06:01:34;101394.38;;;2.95;79.30
829;BME280;396;52.558;13.188;2023-04-07T06:04:02;101391.84;;;3.00;78.96
829;BME280;396;52.558;13.188;2023-04-07T06:06:29;101391.13;;;3.05;78.88
829;BME280;396;52.558;13.188;2023-04-07T06:08:56;101384.88;;;3.11;78.99
829;BME280;396;52.558;13.188;2023-04-07T06:11:22;101392.22;;;3.16;78.46
829;BME280;396;52.558;13.188;2023-04-07T06:13:49;101399.09;;;3.23;77.49
829;BME280;396;52.558;13.188;2023-04-07T06:16:15;101389.66;;;3.21;78.12
829;BME280;396;52.558;13.188;2023-04-07T06:18:42;101393.84;;;3.28;77.72
829;BME280;396;52.558;13.188;2023-04-07T06:21:10;101395.81;;;3.45;77.55
829;BME280;396;52.558;13.188;2023-04-07T06:23:37;101403.84;;;3.57;77.84
829;BME280;396;52.558;13.188;2023-04-07T06:26:04;101400.13;;;3.69;77.79
829;BME280;396;52.558;13.188;2023-04-07T06:28:30;101417.22;;;3.80;78.02
829;BME280;396;52.558;13.188;2023-04-07T06:30:57;101409.16;;;3.92;77.40
829;BME280;396;52.558;13.188;2023-04-07T06:33:23;101407.19;;;3.99;76.20
829;BME280;396;52.558;13.188;2023-04-07T06:35:50;101400.59;;;4.18;76.27
829;BME280;396;52.558;13.188;2023-04-07T06:38:18;101405.22;;;4.35;76.58
829;BME280;396;52.558;13.188;2023-04-07T06:40:45;101401.84;;;4.56;75.65
829;BME280;396;52.558;13.188;2023-04-07T06:43:11;101405.47;;;4.78;74.47
829;BME280;396;52.558;13.188;2023-04-07T06:45:38;101397.75;;;4.99;74.11
829;BME280;396;52.558;13.188;2023-04-07T06:48:05;101410.69;;;5.19;73.11
829;BME280;396;52.558;13.188;2023-04-07T06:50:32;101414.41;;;5.35;72.41
829;BME280;396;52.558;13.188;2023-04-07T06:52:58;101405.47;;;5.29;71.41
829;BME280;396;52.558;13.188;2023-04-07T06:55:26;101406.94;;;5.37;71.63
829;BME280;396;52.558;13.188;2023-04-07T06:57:53;101403.84;;;5.45;70.56
829;BME280;396;52.558;13.188;2023-04-07T07:00:20;101409.78;;;5.47;71.14
829;BME280;396;52.558;13.188;2023-04-07T07:02:47;101410.03;;;5.45;70.24
829;BME280;396;52.558;13.188;2023-04-07T07:05:13;101414.59;;;5.45;70.07
829;BME280;396;52.558;13.188;2023-04-07T07:07:40;101407.09;;;5.47;69.66
829;BME280;396;52.558;13.188;2023-04-07T07:10:08;101412.78;;;5.50;68.74
829;BME280;396;52.558;13.188;2023-04-07T07:12:36;101416.53;;;5.49;67.76
829;BME280;396;52.558;13.188;2023-04-07T07:15:03;101415.00;;;5.37;67.35
829;BME280;396;52.558;13.188;2023-04-07T07:17:30;101416.63;;;5.21;68.39
829;BME280;396;52.558;13.188;2023-04-07T07:19:57;101418.59;;;5.25;68.81
829;BME280;396;52.558;13.188;2023-04-07T07:22:23;101425.00;;;5.24;68.61
829;BME280;396;52.558;13.188;2023-04-07T07:24:50;101421.41;;;5.36;69.02
829;BME280;396;52.558;13.188;2023-04-07T07:27:17;101418.38;;;5.49;68.63
829;BME280;396;52.558;13.188;2023-04-07T07:29:45;101417.97;;;5.57;69.02
829;BME280;396;52.558;13.188;2023-04-07T07:32:12;101426.38;;;5.61;69.07
829;BME280;396;52.558;13.188;2023-04-07T07:34:38;101433.19;;;5.68;68.44
829;BME280;396;52.558;13.188;2023-04-07T07:37:05;101431.66;;;5.72;68.06
829;BME280;396;52.558;13.188;2023-04-07T07:39:31;101430.47;;;5.85;68.28
829;BME280;396;52.558;13.188;2023-04-07T07:41:58;101427.03;;;5.90;67.60
829;BME280;396;52.558;13.188;2023-04-07T07:44:25;101436.47;;;6.09;67.97
829;BME280;396;52.558;13.188;2023-04-07T07:46:53;101432.19;;;6.35;67.94
829;BME280;396;52.558;13.188;2023-04-07T07:49:20;101445.63;;;6.57;68.00
829;BME280;396;52.558;13.188;2023-04-07T07:51:46;101446.91;;;6.76;66.81
829;BME280;396;52.558;13.188;2023-04-07T07:54:13;101440.63;;;6.98;66.50
829;BME280;396;52.558;13.188;2023-04-07T07:56:39;101442.38;;;7.09;64.81
829;BME280;396;52.558;13.188;2023-04-07T07:59:06;101443.56;;;7.23;63.30
829;BME280;396;52.558;13.188;2023-04-07T08:01:33;101441.50;;;7.36;62.07
829;BME280;396;52.558;13.188;2023-04-07T08:04:01;101441.84;;;7.44;59.34
829;BME280;396;52.558;13.188;2023-04-07T08:06:27;101450.53;;;7.56;57.87
829;BME280;396;52.558;13.188;2023-04-07T08:08:55;101441.97;;;7.65;56.24
829;BME280;396;52.558;13.188;2023-04-07T08:11:22;101436.66;;;7.75;54.92
829;BME280;396;52.558;13.188;2023-04-07T08:13:49;101438.81;;;7.83;53.92
829;BME280;396;52.558;13.188;2023-04-07T08:16:16;101445.59;;;7.86;51.62
829;BME280;396;52.558;13.188;2023-04-07T08:18:43;101438.44;;;8.06;51.90
829;BME280;396;52.558;13.188;2023-04-07T08:21:12;101444.41;;;8.19;51.26
829;BME280;396;52.558;13.188;2023-04-07T08:23:38;101447.41;;;8.27;50.87
829;BME280;396;52.558;13.188;2023-04-07T08:26:05;101446.41;;;8.39;51.69
829;BME280;396;52.558;13.188;2023-04-07T08:28:31;101448.59;;;8.47;50.97
829;BME280;396;52.558;13.188;2023-04-07T08:30:58;101451.31;;;8.52;50.57
829;BME280;396;52.558;13.188;2023-04-07T08:33:25;101456.16;;;8.50;50.32
829;BME280;396;52.558;13.188;2023-04-07T08:35:51;101450.50;;;8.51;50.09
829;BME280;396;52.558;13.188;2023-04-07T08:38:19;101452.13;;;8.52;50.63
829;BME280;396;52.558;13.188;2023-04-07T08:40:47;101459.34;;;8.37;48.91
829;BME280;396;52.558;13.188;2023-04-07T08:43:16;101459.28;;;8.31;49.55
829;BME280;396;52.558;13.188;2023-04-07T08:45:45;101453.56;;;8.13;48.17
829;BME280;396;52.558;13.188;2023-04-07T08:48:16;101450.03;;;8.12;48.79
829;BME280;396;52.558;13.188;2023-04-07T08:50:44;101445.50;;;8.23;48.48
829;BME280;396;52.558;13.188;2023-04-07T08:53:12;101455.63;;;8.58;50.17
829;BME280;396;52.558;13.188;2023-04-07T08:55:40;101451.09;;;8.69;48.77
829;BME280;396;52.558;13.188;2023-04-07T08:58:08;101456.53;;;8.99;49.22
829;BME280;396;52.558;13.188;2023-04-07T09:00:37;101458.97;;;9.16;48.09
829;BME280;396;52.558;13.188;2023-04-07T09:03:04;101461.41;;;9.28;47.87
829;BME280;396;52.558;13.188;2023-04-07T09:05:31;101461.13;;;9.09;45.89
829;BME280;396;52.558;13.188;2023-04-07T09:07:58;101460.28;;;8.78;46.60
829;BME280;396;52.558;13.188;2023-04-07T09:10:25;101465.94;;;8.71;47.43
829;BME280;396;52.558;13.188;2023-04-07T09:12:53;101465.91;;;8.56;46.91
829;BME280;396;52.558;13.188;2023-04-07T09:15:20;101470.28;;;8.82;48.41
829;BME280;396;52.558;13.188;2023-04-07T09:17:47;101478.69;;;9.01;48.43
829;BME280;396;52.558;13.188;2023-04-07T09:20:14;101474.38;;;8.95;47.07
829;BME280;396;52.558;13.188;2023-04-07T09:22:42;101473.28;;;8.86;47.23
829;BME280;396;52.558;13.188;2023-04-07T09:25:15;101477.31;;;8.83;45.74
829;BME280;396;52.558;13.188;2023-04-07T09:27:57;101477.34;;;9.09;46.87
829;BME280;396;52.558;13.188;2023-04-07T09:30:25;101477.31;;;8.78;45.08
829;BME280;396;52.558;13.188;2023-04-07T09:32:52;101472.44;;;8.80;45.32
829;BME280;396;52.558;13.188;2023-04-07T09:35:19;101474.31;;;8.70;45.65
829;BME280;396;52.558;13.188;2023-04-07T09:38:00;101468.31;;;8.57;46.23
829;BME280;396;52.558;13.188;2023-04-07T09:40:27;101482.59;;;8.38;45.96
829;BME280;396;52.558;13.188;2023-04-07T09:42:55;101470.34;;;8.20;46.23
829;BME280;396;52.558;13.188;2023-04-07T09:45:24;101475.94;;;8.13;46.61
829;BME280;396;52.558;13.188;2023-04-07T09:47:52;101477.09;;;8.27;46.45
829;BME280;396;52.558;13.188;2023-04-07T09:50:30;101484.63;;;8.15;46.65
829;BME280;396;52.558;13.188;2023-04-07T09:52:57;101487.06;;;8.22;46.15
829;BME280;396;52.558;13.188;2023-04-07T09:55:24;101488.66;;;8.18;45.91
829;BME280;396;52.558;13.188;2023-04-07T09:57:52;101481.53;;;7.96;45.36
829;BME280;396;52.558;13.188;2023-04-07T10:00:21;101476.66;;;7.93;45.87
829;BME280;396;52.558;13.188;2023-04-07T10:02:48;101475.31;;;7.96;46.04
829;BME280;396;52.558;13.188;2023-04-07T10:05:16;101477.53;;;8.04;48.49
829;BME280;396;52.558;13.188;2023-04-07T10:07:45;101478.44;;;8.25;47.72
829;BME280;396;52.558;13.188;2023-04-07T10:10:12;101477.94;;;8.33;46.85
829;BME280;396;52.558;13.188;2023-04-07T10:12:40;101484.78;;;8.51;46.83
829;BME280;396;52.558;13.188;2023-04-07T10:15:08;101474.03;;;8.66;46.60
829;BME280;396;52.558;13.188;2023-04-07T10:17:39;101476.72;;;8.66;45.97
829;BME280;396;52.558;13.188;2023-04-07T10:20:09;101473.78;;;8.78;46.29
829;BME280;396;52.558;13.188;2023-04-07T10:22:36;101473.81;;;8.98;47.37
829;BME280;396;52.558;13.188;2023-04-07T10:25:06;101476.78;;;9.07;46.30
829;BME280;396;52.558;13.188;2023-04-07T10:27:39;101476.81;;;9.22;47.38
829;BME280;396;52.558;13.188;2023-04-07T10:30:17;101482.50;;;9.36;46.65
829;BME280;396;52.558;13.188;2023-04-07T10:32:49;101479.50;;;9.07;46.02
829;BME280;396;52.558;13.188;2023-04-07T10:35:17;101487.34;;;9.03;46.07
829;BME280;396;52.558;13.188;2023-04-07T10:38:11;101484.09;;;9.01;47.03
829;BME280;396;52.558;13.188;2023-04-07T10:40:40;101487.31;;;8.83;46.46
829;BME280;396;52.558;13.188;2023-04-07T10:43:07;101474.59;;;8.73;46.74
829;BME280;396;52.558;13.188;2023-04-07T10:45:54;101477.03;;;8.85;47.63
829;BME280;396;52.558;13.188;2023-04-07T10:48:28;101473.50;;;8.69;46.90
829;BME280;396;52.558;13.188;2023-04-07T10:51:14;101477.53;;;8.72;48.69
829;BME280;396;52.558;13.188;2023-04-07T10:57:10;101474.06;;;8.81;49.84
829;BME280;396;52.558;13.188;2023-04-07T10:59:47;101474.63;;;8.94;49.83
829;BME280;396;52.558;13.188;2023-04-07T11:02:32;101475.69;;;8.88;50.30
829;BME280;396;52.558;13.188;2023-04-07T11:05:00;101474.31;;;8.75;50.57
829;BME280;396;52.558;13.188;2023-04-07T11:07:43;101470.28;;;8.88;51.38
829;BME280;396;52.558;13.188;2023-04-07T11:10:11;101475.75;;;9.13;51.62
829;BME280;396;52.558;13.188;2023-04-07T11:12:40;101464.38;;;9.16;53.11
829;BME280;396;52.558;13.188;2023-04-07T11:15:16;101471.16;;;9.39;54.52
829;BME280;396;52.558;13.188;2023-04-07T11:17:43;101465.47;;;9.00;59.03
829;BME280;396;52.558;13.188;2023-04-07T11:20:11;101468.91;;;8.80;62.51
829;BME280;396;52.558;13.188;2023-04-07T11:22:37;101465.91;;;8.56;65.11
829;BME280;396;52.558;13.188;2023-04-07T11:25:19;101471.28;;;8.51;68.49
829;BME280;396;52.558;13.188;2023-04-07T11:27:46;101467.00;;;8.55;71.20
829;BME280;396;52.558;13.188;2023-04-07T11:30:14;101474.50;;;8.43;73.75
829;BME280;396;52.558;13.188;2023-04-07T11:32:47;101472.78;;;8.26;76.29
829;BME280;396;52.558;13.188;2023-04-07T11:35:15;101476.03;;;8.28;75.65
829;BME280;396;52.558;13.188;2023-04-07T11:37:41;101465.75;;;8.20;77.46
829;BME280;396;52.558;13.188;2023-04-07T11:40:09;101473.69;;;8.37;80.14
829;BME280;396;52.558;13.188;2023-04-07T11:42:37;101464.69;;;8.31;78.44
829;BME280;396;52.558;13.188;2023-04-07T11:45:04;101466.84;;;8.29;80.67
829;BME280;396;52.558;13.188;2023-04-07T11:47:34;101462.41;;;8.03;82.13
829;BME280;396;52.558;13.188;2023-04-07T11:50:01;101460.69;;;7.81;83.45
829;BME280;396;52.558;13.188;2023-04-07T11:52:39;101463.22;;;7.98;84.44
829;BME280;396;52.558;13.188;2023-04-07T11:55:15;101460.53;;;8.03;87.20
829;BME280;396;52.558;13.188;2023-04-07T11:57:42;101460.81;;;8.07;85.77
829;BME280;396;52.558;13.188;2023-04-07T12:00:10;101453.19;;;7.94;86.67
829;BME280;396;52.558;13.188;2023-04-07T12:02:38;101458.84;;;7.92;87.29
829;BME280;396;52.558;13.188;2023-04-07T12:05:05;101462.88;;;7.90;87.28
829;BME280;396;52.558;13.188;2023-04-07T12:07:33;101470.34;;;7.72;89.56
829;BME280;396;52.558;13.188;2023-04-07T12:10:18;101466.94;;;7.50;91.07
829;BME280;396;52.558;13.188;2023-04-07T12:12:45;101469.16;;;7.58;90.48
829;BME280;396;52.558;13.188;2023-04-07T12:15:13;101474.00;;;7.61;92.11
829;BME280;396;52.558;13.188;2023-04-07T12:17:43;101473.25;;;7.66;91.51
829;BME280;396;52.558;13.188;2023-04-07T12:20:11;101467.38;;;7.74;91.93
829;BME280;396;52.558;13.188;2023-04-07T12:22:39;101467.94;;;7.76;91.30
829;BME280;396;52.558;13.188;2023-04-07T12:25:06;101473.03;;;7.72;91.55
829;BME280;396;52.558;13.188;2023-04-07T12:27:33;101463.38;;;7.81;90.87
829;BME280;396;52.558;13.188;2023-04-07T12:30:00;101463.66;;;7.80;91.77
829;BME280;396;52.558;13.188;2023-04-07T12:32:26;101462.28;;;7.82;93.49
829;BME280;396;52.558;13.188;2023-04-07T12:34:54;101463.69;;;7.90;91.87
829;BME280;396;52.558;13.188;2023-04-07T12:37:20;101455.59;;;7.90;91.97
829;BME280;396;52.558;13.188;2023-04-07T12:39:48;101458.25;;;7.80;91.85
829;BME280;396;52.558;13.188;2023-04-07T12:42:15;101460.06;;;7.69;91.68
829;BME280;396;52.558;13.188;2023-04-07T12:44:41;101464.91;;;7.67;92.52
829;BME280;396;52.558;13.188;2023-04-07T12:47:08;101466.03;;;7.76;93.13
829;BME280;396;52.558;13.188;2023-04-07T12:49:36;101470.81;;;7.64;94.08
829;BME280;396;52.558;13.188;2023-04-07T12:52:03;101466.78;;;7.67;94.76
829;BME280;396;52.558;13.188;2023-04-07T12:54:30;101468.13;;;7.64;95.37
829;BME280;396;52.558;13.188;2023-04-07T12:56:59;101463.28;;;7.66;95.83
829;BME280;396;52.558;13.188;2023-04-07T12:59:25;101462.22;;;7.67;95.11
829;BME280;396;52.558;13.188;2023-04-07T13:01:52;101462.06;;;7.47;95.59
829;BME280;396;52.558;13.188;2023-04-07T13:04:19;101456.28;;;7.33;95.97
829;BME280;396;52.558;13.188;2023-04-07T13:06:45;101462.00;;;7.37;95.69
829;BME280;396;52.558;13.188;2023-04-07T13:09:13;101465.22;;;7.39;95.85
829;BME280;396;52.558;13.188;2023-04-07T13:11:39;101458.97;;;7.28;96.41
829;BME280;396;52.558;13.188;2023-04-07T13:14:07;101459.72;;;6.91;98.23
829;BME280;396;52.558;13.188;2023-04-07T13:16:34;101460.63;;;6.75;98.74
829;BME280;396;52.558;13.188;2023-04-07T13:19:01;101458.47;;;6.77;99.48
829;BME280;396;52.558;13.188;2023-04-07T13:21:28;101450.16;;;6.78;100.00
829;BME280;396;52.558;13.188;2023-04-07T13:23:55;101459.38;;;6.82;100.00
829;BME280;396;52.558;13.188;2023-04-07T13:26:21;101463.97;;;6.87;100.00
829;BME280;396;52.558;13.188;2023-04-07T13:28:48;101463.41;;;6.85;99.63
829;BME280;396;52.558;13.188;2023-04-07T13:31:16;101457.22;;;6.85;99.16
829;BME280;396;52.558;13.188;2023-04-07T13:33:42;101459.72;;;6.64;100.00
829;BME280;396;52.558;13.188;2023-04-07T13:36:09;101463.59;;;6.73;100.00
829;BME280;396;52.558;13.188;2023-04-07T13:38:36;101452.03;;;6.78;100.00
829;BME280;396;52.558;13.188;2023-04-07T13:41:03;101447.72;;;7.04;100.00